Terminal Aerodrome Forecast
Issued by NWS

Home | Current Version | Previous Version | Graphics & Text | Print | Product List | Glossary On
Versions: 1 2 3 4 5 6 7 8 9 10 11 12 13 14 15 16 17 18 19 20 21
000
FTUS43 KMPX 170500
TAFAXN
TAF
KAXN 170520Z 1706/1806 14005KT P6SM VCSH SCT030 OVC060
     FM170800 11007KT P6SM SCT015 OVC035
      TEMPO 1708/1712 3SM TSRA BR OVC015CB
     FM171200 12006KT 4SM -SHRA BR SCT003 OVC006
     FM171600 11007KT 6SM BR VCSH SCT006 OVC012
     FM172000 10006KT P6SM SCT012 OVC035=

USA.gov is the U.S. government's official web portal to all federal, state and local government web resources and services.